Time;durP1;ratioP1;P1;durP2;ratioP2;P2;SDS_P1;SDS_P2;PMS_P1;PMS_P2;Temp;Humidity;BMP_temperature;BMP_pressure;BME280_temperature;BME280_humidity;BME280_pressure;Samples;Min_cycle;Max_cycle;Signal;HPM_P1;HPM_P2
2022/11/05 00:10:17;;;;;;;7.00;4.97;;;7.20;99.90;;;;;;5081272;28;20219;-81
2022/11/05 00:18:11;;;;;;;6.37;4.60;;;7.00;99.90;;;;;;5080409;28;20200;-81
2022/11/05 00:20:37;;;;;;;7.37;4.77;;;7.00;99.90;;;;;;5078440;28;20257;-81
2022/11/05 00:25:56;;;;;;;8.87;5.37;;;6.80;99.90;;;;;;5080058;28;20182;-81
2022/11/05 00:28:22;;;;;;;12.67;5.23;;;6.80;99.90;;;;;;5080328;28;20270;-81
2022/11/05 00:30:48;;;;;;;9.17;5.30;;;6.70;99.90;;;;;;5078411;28;20671;-81
2022/11/05 00:33:13;;;;;;;10.00;5.47;;;6.70;99.90;;;;;;5079569;28;20175;-81
2022/11/05 00:35:39;;;;;;;10.00;5.90;;;6.60;99.90;;;;;;5080435;28;20171;-81
2022/11/05 00:38:05;;;;;;;7.17;5.30;;;6.50;99.90;;;;;;5080087;28;20568;-81
2022/11/05 00:40:30;;;;;;;8.53;5.40;;;6.50;99.90;;;;;;5079288;28;20175;-81
2022/11/05 00:45:40;;;;;;;10.67;6.03;;;6.40;99.90;;;;;;5078681;28;20201;-80
2022/11/05 00:50:50;;;;;;;11.77;6.00;;;6.30;99.90;;;;;;5079132;28;20663;-81
2022/11/05 00:53:15;;;;;;;8.70;5.97;;;6.30;99.90;;;;;;5080252;28;20241;-81
2022/11/05 00:55:43;;;;;;;13.47;5.77;;;6.30;99.90;;;;;;5078923;28;20171;-81
2022/11/05 00:58:16;;;;;;;9.03;5.77;;;6.30;99.90;;;;;;5077898;28;20577;-81
2022/11/05 01:00:53;;;;;;;8.37;5.40;;;6.20;99.90;;;;;;5078746;28;20261;-81
2022/11/05 01:03:21;;;;;;;7.33;5.40;;;6.20;99.90;;;;;;5077939;28;20171;-81
2022/11/05 01:05:55;;;;;;;10.73;5.80;;;6.20;99.90;;;;;;5078165;28;20181;-81
2022/11/05 01:08:23;;;;;;;9.23;5.30;;;6.10;99.90;;;;;;5077398;28;20198;-81
2022/11/05 01:10:54;;;;;;;13.57;6.07;;;6.10;99.90;;;;;;5079060;28;20175;-81
2022/11/05 01:13:24;;;;;;;8.37;5.37;;;6.10;99.90;;;;;;5078682;28;20205;-81
2022/11/05 01:15:50;;;;;;;9.40;5.63;;;6.00;99.90;;;;;;5077237;28;20190;-81
2022/11/05 01:18:17;;;;;;;9.13;5.37;;;6.00;99.90;;;;;;5078207;28;20196;-81
2022/11/05 01:20:43;;;;;;;7.27;5.20;;;5.90;99.90;;;;;;5078713;28;20613;-81
2022/11/05 01:23:08;;;;;;;8.30;5.10;;;6.00;99.90;;;;;;5077352;28;20186;-81
2022/11/05 01:25:34;;;;;;;9.23;5.63;;;6.00;99.90;;;;;;5077777;28;20171;-81
2022/11/05 01:28:01;;;;;;;7.87;4.80;;;5.90;99.90;;;;;;5078313;28;20198;-81
2022/11/05 01:30:27;;;;;;;6.90;4.90;;;5.80;99.90;;;;;;5077365;28;20172;-81
2022/11/05 01:32:52;;;;;;;10.77;5.83;;;5.80;99.90;;;;;;5077074;28;20179;-81
2022/11/05 01:35:18;;;;;;;9.03;5.37;;;5.70;99.90;;;;;;5078344;28;20175;-81
2022/11/05 01:37:44;;;;;;;8.10;5.60;;;5.70;99.90;;;;;;5078249;28;20588;-81
2022/11/05 01:40:17;;;;;;;8.13;5.63;;;5.70;99.90;;;;;;5078461;28;20649;-81
2022/11/05 01:42:43;;;;;;;10.77;6.10;;;5.70;99.90;;;;;;5076975;28;20629;-81
2022/11/05 01:45:08;;;;;;;6.67;5.47;;;5.60;99.90;;;;;;5078206;28;20247;-80
2022/11/05 01:47:43;;;;;;;9.40;6.50;;;5.60;99.90;;;;;;5081083;28;20540;-81
2022/11/05 01:50:20;;;;;;;8.90;5.73;;;5.60;99.90;;;;;;5082385;28;20563;-81
2022/11/05 01:52:49;;;;;;;10.53;5.53;;;5.70;99.90;;;;;;5080696;28;20167;-80
2022/11/05 01:55:20;;;;;;;9.37;6.03;;;5.60;99.90;;;;;;5082439;28;20179;-81
2022/11/05 01:57:46;;;;;;;6.50;5.20;;;5.60;99.90;;;;;;5081747;28;20195;-81
2022/11/05 02:00:12;;;;;;;9.03;5.93;;;5.60;99.90;;;;;;5081207;28;20202;-81
2022/11/05 02:02:38;;;;;;;9.43;6.33;;;5.60;99.90;;;;;;5082797;28;20221;-81
2022/11/05 02:05:05;;;;;;;12.53;6.17;;;5.60;99.90;;;;;;5081979;28;20175;-80
2022/11/05 02:07:32;;;;;;;8.30;5.67;;;5.60;99.90;;;;;;5080212;28;20210;-81
2022/11/05 02:10:07;;;;;;;11.87;6.13;;;5.50;99.90;;;;;;5079937;28;20178;-80
2022/11/05 02:12:35;;;;;;;10.83;5.70;;;5.60;99.90;;;;;;5082632;28;20166;-81
2022/11/05 02:15:00;;;;;;;7.73;5.87;;;5.60;99.90;;;;;;5079851;28;20194;-80
2022/11/05 02:17:42;;;;;;;7.90;5.77;;;5.60;99.90;;;;;;5083154;28;20167;-81
2022/11/05 02:20:21;;;;;;;8.97;5.80;;;5.60;99.90;;;;;;5084318;28;20186;-81
2022/11/05 02:23:24;;;;;;;8.70;4.90;;;5.50;99.90;;;;;;5083923;28;20158;-81
2022/11/05 02:26:13;;;;;;;9.70;5.57;;;5.60;99.90;;;;;;5100534;28;20166;-79
2022/11/05 02:28:55;;;;;;;6.70;5.37;;;5.60;99.90;;;;;;5097564;28;20624;-80
2022/11/05 02:31:35;;;;;;;7.33;4.87;;;5.60;99.90;;;;;;5080639;28;20269;-81
2022/11/05 02:34:39;;;;;;;7.23;5.17;;;5.60;99.90;;;;;;5080968;28;20210;-81
2022/11/05 02:37:24;;;;;;;7.70;5.00;;;5.60;99.90;;;;;;5081806;28;20291;-81
2022/11/05 02:39:57;;;;;;;10.03;5.83;;;5.60;99.90;;;;;;5093145;28;20166;-80
2022/11/05 02:42:48;;;;;;;9.30;6.00;;;5.50;99.90;;;;;;5099102;28;20151;-79
2022/11/05 02:48:56;;;;;;;7.40;5.53;;;5.50;99.90;;;;;;5080087;28;20218;-80
2022/11/05 02:51:34;;;;;;;10.97;5.37;;;5.50;99.90;;;;;;5078625;28;20185;-80
2022/11/05 02:54:19;;;;;;;10.13;4.73;;;5.50;99.90;;;;;;5080150;28;20234;-80
2022/11/05 02:56:48;;;;;;;8.43;5.53;;;5.50;99.90;;;;;;5080257;28;20220;-81
2022/11/05 02:59:14;;;;;;;6.80;5.53;;;5.40;99.90;;;;;;5079291;28;20307;-79
2022/11/05 03:01:42;;;;;;;7.13;4.73;;;5.40;99.90;;;;;;5080697;28;20537;-80
2022/11/05 03:04:10;;;;;;;8.40;5.03;;;5.40;99.90;;;;;;5081184;28;20318;-79
2022/11/05 03:06:49;;;;;;;9.77;5.97;;;5.40;99.90;;;;;;5080418;28;20177;-81
2022/11/05 03:09:37;;;;;;;9.10;5.97;;;5.50;99.90;;;;;;5081018;28;20230;-81
2022/11/05 03:12:27;;;;;;;6.70;4.87;;;5.50;99.90;;;;;;5078893;28;20175;-80
2022/11/05 03:15:11;;;;;;;10.60;5.77;;;5.50;99.90;;;;;;5079695;28;20155;-81
2022/11/05 03:17:44;;;;;;;11.13;5.57;;;5.60;99.90;;;;;;5079366;28;20220;-80
2022/11/05 03:20:24;;;;;;;7.87;5.13;;;5.60;99.90;;;;;;5078775;28;20182;-80
2022/11/05 03:23:07;;;;;;;8.57;5.00;;;5.60;99.90;;;;;;5079595;28;20312;-80
2022/11/05 03:25:39;;;;;;;7.70;5.00;;;5.50;99.90;;;;;;5078640;28;20260;-81
2022/11/05 03:28:09;;;;;;;8.83;5.43;;;5.50;99.90;;;;;;5079910;28;20206;-81
2022/11/05 03:30:36;;;;;;;6.13;5.07;;;5.60;99.90;;;;;;5078000;28;20210;-80
2022/11/05 03:33:10;;;;;;;7.97;5.63;;;5.60;99.90;;;;;;5079857;28;20181;-81
2022/11/05 03:35:45;;;;;;;8.97;5.63;;;5.50;99.90;;;;;;5078606;28;20545;-81
2022/11/05 03:38:15;;;;;;;10.00;5.10;;;5.50;99.90;;;;;;5080948;28;20199;-81
2022/11/05 03:40:44;;;;;;;8.43;4.90;;;5.40;99.90;;;;;;5088991;28;20194;-79
2022/11/05 03:43:11;;;;;;;7.60;5.63;;;5.40;99.90;;;;;;5097929;28;20170;-79
2022/11/05 03:45:42;;;;;;;7.40;5.43;;;5.40;99.90;;;;;;5098137;28;20175;-79
2022/11/05 03:48:11;;;;;;;6.97;5.00;;;5.40;99.90;;;;;;5080381;28;20199;-80
2022/11/05 03:50:48;;;;;;;7.17;5.07;;;5.40;99.90;;;;;;5079864;28;20240;-80
2022/11/05 03:53:17;;;;;;;7.77;5.33;;;5.40;99.90;;;;;;5078091;28;20714;-80
2022/11/05 03:56:00;;;;;;;10.17;5.27;;;5.40;99.90;;;;;;5079237;28;20167;-79
2022/11/05 03:58:27;;;;;;;6.60;5.43;;;5.40;99.90;;;;;;5079034;28;20248;-81
2022/11/05 04:00:53;;;;;;;7.17;5.10;;;5.30;99.90;;;;;;5079839;28;20171;-80
2022/11/05 04:03:19;;;;;;;7.10;5.10;;;5.30;99.90;;;;;;5078131;28;20175;-80
2022/11/05 04:13:22;;;;;;;6.93;5.03;;;5.30;99.90;;;;;;5077966;28;20530;-81
2022/11/05 04:13:58;;;;;;;6.63;4.67;;;5.20;99.90;;;;;;5079376;28;20186;-81
2022/11/05 04:19:08;;;;;;;6.83;4.67;;;5.10;99.90;;;;;;5078996;28;20594;-79
2022/11/05 04:24:17;;;;;;;7.90;4.80;;;5.00;99.90;;;;;;5078985;28;20213;-81
2022/11/05 04:26:43;;;;;;;9.07;4.53;;;4.90;99.90;;;;;;5078623;28;20175;-80
2022/11/05 04:31:54;;;;;;;10.27;4.97;;;4.90;99.90;;;;;;5079212;28;20178;-81
2022/11/05 04:34:20;;;;;;;7.90;6.17;;;4.90;99.90;;;;;;5077348;28;20174;-80
2022/11/05 04:36:48;;;;;;;10.83;6.37;;;4.90;99.90;;;;;;5077273;28;20649;-80
2022/11/05 04:39:14;;;;;;;10.53;6.50;;;4.90;99.90;;;;;;5078552;28;20303;-80
2022/11/05 04:41:40;;;;;;;10.50;7.20;;;4.90;99.90;;;;;;5078605;28;20197;-80
2022/11/05 04:44:06;;;;;;;9.93;7.23;;;4.90;99.90;;;;;;5077127;28;20254;-80
2022/11/05 04:46:31;;;;;;;8.23;6.07;;;4.90;99.90;;;;;;5078319;28;20175;-80
2022/11/05 04:48:57;;;;;;;10.10;7.37;;;5.00;99.90;;;;;;5078359;28;20242;-80
2022/11/05 04:51:22;;;;;;;10.70;6.57;;;4.90;99.90;;;;;;5078877;28;20195;-80
2022/11/05 04:53:48;;;;;;;8.73;6.07;;;4.90;99.90;;;;;;5078053;28;20171;-81
2022/11/05 04:56:23;;;;;;;9.37;6.30;;;4.90;99.90;;;;;;5076715;28;20664;-80
2022/11/05 04:58:49;;;;;;;7.70;5.87;;;4.90;99.90;;;;;;5077948;28;20193;-80
2022/11/05 05:01:21;;;;;;;8.93;5.70;;;4.90;99.90;;;;;;5076825;28;20714;-80
2022/11/05 05:03:47;;;;;;;8.03;5.53;;;4.90;99.90;;;;;;5078516;28;20161;-81
2022/11/05 05:06:13;;;;;;;8.73;6.17;;;4.90;99.90;;;;;;5076777;28;20174;-80
2022/11/05 05:08:39;;;;;;;10.77;5.53;;;4.80;99.90;;;;;;5077505;28;20194;-80
2022/11/05 05:11:06;;;;;;;8.10;5.70;;;4.80;99.90;;;;;;5076796;28;20167;-80
2022/11/05 05:13:33;;;;;;;10.23;6.37;;;4.70;99.90;;;;;;5078816;28;20159;-81
2022/11/05 05:15:58;;;;;;;7.50;5.63;;;4.80;99.90;;;;;;5077454;28;20167;-81
2022/11/05 05:18:25;;;;;;;9.80;6.10;;;4.70;99.90;;;;;;5076920;28;20226;-81
2022/11/05 05:23:39;;;;;;;9.23;6.07;;;4.70;99.90;;;;;;5083837;28;20634;-80
2022/11/05 05:26:05;;;;;;;11.00;5.77;;;4.70;99.90;;;;;;5081448;28;20207;-80
2022/11/05 05:28:31;;;;;;;7.93;5.80;;;4.60;99.90;;;;;;5079287;28;20210;-80
2022/11/05 05:30:58;;;;;;;9.77;5.93;;;4.60;99.90;;;;;;5080735;28;20174;-81
2022/11/05 05:33:24;;;;;;;7.97;6.13;;;4.70;99.90;;;;;;5081845;28;20194;-80
2022/11/05 05:35:49;;;;;;;9.17;7.03;;;4.70;99.90;;;;;;5079863;28;20645;-80
2022/11/05 05:38:15;;;;;;;11.83;6.53;;;4.70;99.90;;;;;;5090228;28;20262;-80
2022/11/05 05:40:40;;;;;;;8.73;6.43;;;4.60;99.90;;;;;;5101817;28;20182;-80
2022/11/05 05:43:06;;;;;;;10.37;6.73;;;4.60;99.90;;;;;;5097203;28;20221;-80
2022/11/05 05:45:34;;;;;;;13.07;6.97;;;4.60;99.90;;;;;;5077148;28;20259;-80
2022/11/05 05:47:59;;;;;;;8.73;6.37;;;4.60;99.90;;;;;;5079060;28;20290;-81
2022/11/05 05:50:25;;;;;;;12.33;6.43;;;4.60;99.90;;;;;;5080838;28;20702;-80
2022/11/05 05:52:50;;;;;;;11.77;6.47;;;4.60;99.90;;;;;;5079518;28;20193;-80
2022/11/05 05:55:16;;;;;;;10.03;6.40;;;4.60;99.90;;;;;;5080436;28;20633;-80
2022/11/05 05:57:41;;;;;;;7.80;6.30;;;4.60;99.90;;;;;;5077986;28;20179;-80
2022/11/05 06:00:08;;;;;;;9.57;6.40;;;4.60;99.90;;;;;;5080679;28;20171;-79
2022/11/05 06:02:33;;;;;;;13.87;7.47;;;4.60;99.90;;;;;;5079746;28;20171;-81
2022/11/05 06:04:59;;;;;;;10.67;6.80;;;4.60;99.90;;;;;;5079732;28;20255;-80
2022/11/05 06:07:24;;;;;;;9.13;6.50;;;4.60;99.90;;;;;;5078078;28;20522;-80
2022/11/05 06:09:50;;;;;;;11.07;7.47;;;4.60;99.90;;;;;;5079827;28;20213;-80
2022/11/05 06:12:15;;;;;;;10.97;7.67;;;4.50;99.90;;;;;;5080721;28;20185;-80
2022/11/05 06:14:41;;;;;;;9.50;6.93;;;4.60;99.90;;;;;;5079118;28;20167;-78
2022/11/05 06:17:06;;;;;;;10.97;7.27;;;4.60;99.90;;;;;;5077644;28;20602;-78
2022/11/05 06:19:32;;;;;;;8.33;6.23;;;4.60;99.90;;;;;;5076498;28;20675;-78
2022/11/05 06:21:57;;;;;;;13.90;6.70;;;4.50;99.90;;;;;;5076062;28;20648;-78
2022/11/05 06:24:23;;;;;;;11.03;6.93;;;4.50;99.90;;;;;;5075863;28;20175;-78
2022/11/05 06:26:49;;;;;;;7.77;6.07;;;4.50;99.90;;;;;;5077350;28;20175;-78
2022/11/05 06:29:14;;;;;;;10.40;6.40;;;4.50;99.90;;;;;;5075452;28;20218;-78
2022/11/05 06:31:39;;;;;;;11.43;7.33;;;4.50;99.90;;;;;;5076857;28;20175;-78
2022/11/05 06:34:05;;;;;;;8.83;5.53;;;4.40;99.90;;;;;;5077327;28;20285;-78
2022/11/05 06:36:31;;;;;;;11.83;5.90;;;4.40;99.90;;;;;;5077075;28;20591;-78
2022/11/05 06:38:56;;;;;;;7.83;5.17;;;4.40;99.90;;;;;;5077311;28;20579;-79
2022/11/05 06:41:22;;;;;;;9.03;5.47;;;4.40;99.90;;;;;;5076849;28;20179;-78
2022/11/05 06:43:47;;;;;;;10.13;6.23;;;4.30;99.90;;;;;;5075194;28;20201;-78
2022/11/05 06:46:13;;;;;;;8.83;5.70;;;4.30;99.90;;;;;;5076991;28;20629;-78
2022/11/05 06:48:39;;;;;;;6.63;5.67;;;4.30;99.90;;;;;;5076553;28;20304;-78
2022/11/05 06:51:06;;;;;;;10.93;6.33;;;4.20;99.90;;;;;;5076892;28;20171;-78
2022/11/05 06:53:32;;;;;;;10.00;6.90;;;4.20;99.90;;;;;;5077077;28;20250;-78
2022/11/05 06:56:01;;;;;;;10.97;8.07;;;4.10;99.90;;;;;;5075425;28;20178;-78
2022/11/05 06:58:27;;;;;;;10.13;6.97;;;4.10;99.90;;;;;;5076157;28;20202;-78
2022/11/05 07:00:52;;;;;;;10.43;7.37;;;4.20;99.90;;;;;;5075252;28;20175;-78
2022/11/05 07:03:18;;;;;;;13.37;8.10;;;4.20;99.90;;;;;;5074979;28;20599;-78
2022/11/05 07:05:48;;;;;;;14.93;9.83;;;4.20;99.90;;;;;;5076877;28;20212;-78
2022/11/05 07:08:15;;;;;;;12.43;8.77;;;4.20;99.90;;;;;;5076104;28;20670;-78
2022/11/05 07:10:40;;;;;;;14.57;9.90;;;4.20;99.90;;;;;;5074807;28;20174;-78
2022/11/05 07:13:06;;;;;;;12.23;9.63;;;4.30;99.90;;;;;;5076409;28;20220;-78
2022/11/05 07:15:31;;;;;;;16.80;9.97;;;4.20;99.90;;;;;;5075907;28;20530;-78
2022/11/05 07:17:58;;;;;;;11.73;7.80;;;4.20;99.90;;;;;;5074567;28;20214;-78
2022/11/05 07:20:25;;;;;;;10.07;7.43;;;4.30;99.90;;;;;;5076356;28;20186;-78
2022/11/05 07:22:50;;;;;;;11.87;7.83;;;4.30;99.90;;;;;;5076704;28;20191;-78
2022/11/05 07:25:16;;;;;;;9.27;7.33;;;4.30;99.90;;;;;;5076337;28;20178;-78
2022/11/05 07:27:42;;;;;;;9.17;8.20;;;4.30;99.90;;;;;;5076450;28;20178;-78
2022/11/05 07:30:09;;;;;;;10.77;8.67;;;4.40;99.90;;;;;;5076589;28;20202;-78
2022/11/05 07:32:38;;;;;;;13.23;9.83;;;4.40;99.90;;;;;;5075626;28;20203;-78
2022/11/05 07:35:04;;;;;;;16.17;9.97;;;4.50;99.90;;;;;;5075904;28;20171;-78
2022/11/05 07:37:30;;;;;;;14.03;9.50;;;4.50;99.90;;;;;;5075434;28;20175;-78
2022/11/05 07:39:55;;;;;;;19.33;11.10;;;4.60;99.90;;;;;;5075966;28;20228;-79
2022/11/05 07:42:21;;;;;;;14.60;9.87;;;4.60;99.90;;;;;;5074235;28;20595;-78
2022/11/05 07:44:46;;;;;;;17.20;11.90;;;4.70;99.90;;;;;;5073277;28;20206;-78
2022/11/05 07:47:12;;;;;;;18.93;12.13;;;4.80;99.90;;;;;;5074318;28;20182;-78
2022/11/05 07:49:38;;;;;;;17.37;11.27;;;4.80;99.90;;;;;;5075000;28;20294;-78
2022/11/05 07:52:03;;;;;;;18.67;12.23;;;4.90;99.90;;;;;;5074400;28;20167;-78
2022/11/05 07:54:29;;;;;;;15.70;11.97;;;4.90;99.90;;;;;;5075170;28;20668;-79
2022/11/05 07:56:54;;;;;;;19.27;12.70;;;5.00;99.90;;;;;;5075241;28;20671;-78
2022/11/05 07:59:21;;;;;;;16.07;12.33;;;5.00;99.90;;;;;;5074762;28;20205;-78
2022/11/05 08:01:46;;;;;;;22.93;12.57;;;5.20;99.90;;;;;;5074882;28;20175;-78
2022/11/05 08:04:12;;;;;;;19.87;12.30;;;5.20;99.90;;;;;;5074647;28;20181;-78
2022/11/05 08:06:37;;;;;;;19.67;12.17;;;5.30;99.90;;;;;;5073244;28;20182;-78
2022/11/05 08:09:03;;;;;;;21.07;12.07;;;5.30;99.90;;;;;;5073609;28;20199;-78
2022/11/05 08:11:28;;;;;;;18.10;11.60;;;5.40;99.90;;;;;;5075135;28;20221;-78
2022/11/05 08:13:54;;;;;;;18.30;12.37;;;5.50;99.90;;;;;;5075022;28;20196;-78
2022/11/05 08:16:19;;;;;;;21.97;13.60;;;5.60;99.90;;;;;;5074460;28;20238;-78
2022/11/05 08:18:45;;;;;;;22.23;12.93;;;5.70;99.90;;;;;;5074213;28;20203;-78
2022/11/05 08:21:11;;;;;;;19.93;12.37;;;5.80;99.90;;;;;;5075613;28;20649;-78
2022/11/05 08:23:38;;;;;;;17.07;12.53;;;5.90;99.90;;;;;;5075681;28;20167;-79
2022/11/05 08:26:03;;;;;;;19.20;12.70;;;6.00;99.90;;;;;;5076190;28;20162;-78
2022/11/05 08:28:30;;;;;;;23.03;12.97;;;6.10;99.90;;;;;;5075636;28;20205;-78
2022/11/05 08:30:56;;;;;;;18.40;12.03;;;6.10;99.90;;;;;;5075225;28;20537;-78
2022/11/05 08:33:23;;;;;;;21.80;12.70;;;6.20;99.90;;;;;;5076074;28;20532;-78
2022/11/05 08:35:49;;;;;;;21.93;13.03;;;6.30;99.90;;;;;;5075900;28;20167;-79
2022/11/05 08:38:17;;;;;;;22.90;13.13;;;6.40;99.90;;;;;;5074800;28;20621;-78
2022/11/05 08:40:44;;;;;;;22.03;13.87;;;6.50;99.90;;;;;;5075740;28;20641;-79
2022/11/05 08:43:12;;;;;;;23.93;14.00;;;6.60;99.90;;;;;;5074926;28;20171;-79
2022/11/05 08:45:38;;;;;;;31.20;12.60;;;6.70;99.90;;;;;;5075920;28;20186;-79
2022/11/05 08:48:09;;;;;;;21.73;11.73;;;6.70;99.90;;;;;;5075527;28;20205;-79
2022/11/05 08:50:36;;;;;;;22.17;12.47;;;6.80;99.90;;;;;;5075855;28;20205;-79
2022/11/05 08:53:03;;;;;;;24.80;12.47;;;6.90;99.90;;;;;;5081925;28;20228;-79
2022/11/05 08:55:28;;;;;;;19.50;12.10;;;7.00;99.90;;;;;;5097356;28;20190;-78
2022/11/05 08:57:56;;;;;;;24.83;13.23;;;7.00;99.90;;;;;;5100357;28;20199;-78
2022/11/05 09:00:21;;;;;;;19.77;12.17;;;7.10;99.90;;;;;;5079714;28;20693;-79
2022/11/05 09:02:47;;;;;;;21.20;12.60;;;7.10;99.90;;;;;;5078032;28;20183;-78
2022/11/05 09:05:12;;;;;;;18.73;12.23;;;7.20;99.90;;;;;;5077419;28;20181;-79
2022/11/05 09:07:38;;;;;;;27.97;12.43;;;7.30;99.90;;;;;;5079304;28;20194;-79
2022/11/05 09:10:04;;;;;;;20.33;11.43;;;7.40;99.90;;;;;;5079354;28;20202;-79
2022/11/05 09:12:30;;;;;;;22.93;12.10;;;7.40;99.90;;;;;;5079089;28;20735;-79
2022/11/05 09:14:55;;;;;;;19.50;11.50;;;7.50;99.90;;;;;;5077507;28;20194;-79
2022/11/05 09:17:21;;;;;;;16.47;10.67;;;7.60;99.90;;;;;;5079548;28;20253;-79
2022/11/05 09:19:47;;;;;;;19.40;11.73;;;7.70;99.90;;;;;;5076896;28;20213;-78
2022/11/05 09:22:13;;;;;;;19.27;10.57;;;7.70;99.90;;;;;;5077500;28;20185;-78
2022/11/05 09:24:41;;;;;;;18.20;10.87;;;7.70;99.90;;;;;;5078475;28;20229;-78
2022/11/05 09:27:13;;;;;;;19.10;9.97;;;7.80;99.90;;;;;;5076957;28;20232;-78
2022/11/05 09:29:39;;;;;;;14.57;10.83;;;7.80;99.90;;;;;;5078358;28;20204;-79
2022/11/05 09:32:05;;;;;;;20.60;11.03;;;7.90;99.90;;;;;;5077231;28;20175;-78
2022/11/05 09:34:31;;;;;;;17.57;10.17;;;7.90;99.90;;;;;;5077258;28;20545;-79
2022/11/05 09:36:57;;;;;;;17.97;10.03;;;8.00;99.90;;;;;;5079083;28;20262;-79
2022/11/05 09:39:22;;;;;;;17.97;10.17;;;8.10;99.90;;;;;;5077642;28;20253;-79
2022/11/05 09:41:50;;;;;;;11.80;8.77;;;8.10;99.90;;;;;;5077314;28;20321;-79
2022/11/05 09:44:51;;;;;;;20.83;9.00;;;8.20;99.90;;;;;;5079411;28;20199;-79
2022/11/05 09:47:26;;;;;;;14.33;9.73;;;8.20;99.90;;;;;;5072663;28;20187;-78
2022/11/05 09:49:54;;;;;;;14.83;8.40;;;8.30;99.90;;;;;;5079175;28;20235;-79
2022/11/05 09:52:27;;;;;;;16.77;8.60;;;8.40;99.90;;;;;;5078809;28;20168;-79
2022/11/05 09:54:54;;;;;;;14.73;8.33;;;8.50;99.90;;;;;;5079016;28;20163;-79
2022/11/05 09:57:24;;;;;;;20.00;8.87;;;8.50;99.90;;;;;;5078836;28;20159;-79
2022/11/05 09:59:53;;;;;;;15.70;8.27;;;8.70;99.90;;;;;;5078628;28;20166;-79
2022/11/05 10:02:25;;;;;;;18.87;8.97;;;8.70;99.90;;;;;;5079155;28;20254;-79
2022/11/05 10:04:55;;;;;;;11.97;7.67;;;8.80;99.90;;;;;;5077864;28;20528;-79
2022/11/05 10:07:25;;;;;;;15.23;7.30;;;8.90;99.90;;;;;;5078310;28;20179;-79
2022/11/05 10:09:56;;;;;;;12.43;7.13;;;9.00;99.90;;;;;;5077521;28;20205;-79
2022/11/05 10:12:36;;;;;;;12.23;6.90;;;9.10;99.90;;;;;;5078712;28;20167;-79
2022/11/05 10:15:14;;;;;;;11.03;6.50;;;9.10;99.90;;;;;;5081820;28;20253;-79
2022/11/05 10:17:45;;;;;;;11.03;5.80;;;9.20;99.90;;;;;;5081643;28;20311;-79
2022/11/05 10:20:23;;;;;;;13.93;7.00;;;9.30;99.90;;;;;;5076717;28;20182;-78
2022/11/05 10:23:01;;;;;;;12.27;6.53;;;9.40;99.90;;;;;;5078223;28;20565;-79
2022/11/05 10:25:38;;;;;;;7.50;5.43;;;9.40;99.90;;;;;;5080064;28;20163;-79
2022/11/05 10:28:05;;;;;;;11.37;5.70;;;9.50;99.90;;;;;;5077926;28;20198;-79
2022/11/05 10:30:31;;;;;;;11.20;5.23;;;9.60;99.90;;;;;;5077696;28;20191;-79
2022/11/05 10:33:01;;;;;;;9.23;5.03;;;9.60;99.90;;;;;;5076440;28;20170;-79
2022/11/05 10:35:30;;;;;;;12.10;6.30;;;9.70;99.90;;;;;;5077654;28;20170;-79
2022/11/05 10:37:56;;;;;;;9.47;5.50;;;9.70;99.90;;;;;;5077524;28;20232;-79
2022/11/05 10:40:58;;;;;;;12.50;5.33;;;9.80;99.90;;;;;;5077989;28;20167;-79
2022/11/05 10:43:45;;;;;;;8.20;4.90;;;9.80;99.90;;;;;;5079499;28;20158;-79
2022/11/05 10:46:26;;;;;;;13.43;5.10;;;9.80;99.90;;;;;;5077319;28;20163;-79
2022/11/05 10:49:25;;;;;;;8.63;4.70;;;9.90;99.90;;;;;;5076181;28;20206;-79
2022/11/05 10:51:56;;;;;;;9.90;5.27;;;9.90;99.90;;;;;;5075799;28;20155;-79
2022/11/05 10:54:28;;;;;;;9.00;4.93;;;10.00;99.90;;;;;;5077893;28;20167;-79
2022/11/05 10:56:53;;;;;;;7.67;3.90;;;10.00;99.90;;;;;;5077295;28;20238;-79
2022/11/05 10:59:28;;;;;;;10.27;5.13;;;10.10;99.90;;;;;;5077109;28;20221;-79
2022/11/05 11:02:19;;;;;;;8.17;4.73;;;10.10;99.90;;;;;;5076306;28;20175;-78
2022/11/05 11:04:51;;;;;;;8.03;4.17;;;10.20;99.90;;;;;;5076159;28;20212;-79
2022/11/05 11:07:22;;;;;;;8.30;4.37;;;10.40;99.90;;;;;;5076082;28;20159;-79
2022/11/05 11:09:49;;;;;;;9.27;4.33;;;10.50;99.90;;;;;;5076831;28;20684;-79
2022/11/05 11:12:32;;;;;;;12.27;5.00;;;10.50;99.90;;;;;;5075138;28;20174;-79
2022/11/05 11:15:23;;;;;;;6.30;4.57;;;10.50;99.90;;;;;;5076941;28;20617;-79
2022/11/05 11:17:49;;;;;;;7.73;4.73;;;10.60;99.90;;;;;;5075119;28;20191;-79
2022/11/05 11:20:25;;;;;;;10.50;4.77;;;10.70;99.90;;;;;;5076170;28;20244;-79
2022/11/05 11:22:58;;;;;;;10.87;4.70;;;10.80;99.90;;;;;;5076878;28;20202;-79
2022/11/05 11:25:27;;;;;;;7.60;4.50;;;10.90;99.90;;;;;;5077039;28;20245;-79
2022/11/05 11:27:53;;;;;;;7.73;4.40;;;11.00;99.90;;;;;;5075409;28;20198;-79
2022/11/05 11:30:20;;;;;;;6.33;3.67;;;11.00;99.90;;;;;;5077635;28;20228;-79
2022/11/05 11:32:47;;;;;;;7.13;4.27;;;11.20;99.90;;;;;;5076973;28;20222;-79
2022/11/05 11:35:22;;;;;;;7.40;3.77;;;11.20;99.90;;;;;;5075312;28;20544;-79
2022/11/05 11:37:50;;;;;;;7.60;4.07;;;11.20;99.90;;;;;;5076565;28;20233;-79
2022/11/05 11:40:35;;;;;;;7.80;4.63;;;11.20;99.90;;;;;;5075486;28;20649;-79
2022/11/05 11:43:05;;;;;;;9.07;4.37;;;11.20;99.90;;;;;;5075626;28;20242;-79
2022/11/05 11:45:44;;;;;;;14.77;4.90;;;11.30;99.90;;;;;;5076510;28;20634;-79
2022/11/05 11:48:16;;;;;;;9.83;4.60;;;11.30;99.90;;;;;;5076423;28;20179;-80
2022/11/05 11:50:43;;;;;;;6.67;4.07;;;11.30;99.90;;;;;;5076959;28;20163;-79
2022/11/05 11:53:21;;;;;;;6.60;4.20;;;11.30;99.90;;;;;;5076697;28;20167;-80
2022/11/05 11:56:25;;;;;;;7.83;4.30;;;11.30;99.90;;;;;;5076872;28;20174;-79
2022/11/05 11:58:53;;;;;;;6.37;3.47;;;11.40;99.90;;;;;;5034882;28;20218;-78
2022/11/05 12:01:59;;;;;;;7.23;3.00;;;11.40;99.90;;;;;;5035417;28;20239;-79
2022/11/05 12:04:56;;;;;;;5.47;2.70;;;11.50;99.90;;;;;;5068701;28;20201;-79
2022/11/05 12:07:37;;;;;;;4.47;2.43;;;11.50;99.90;;;;;;5085675;28;20175;-78
2022/11/05 12:10:31;;;;;;;5.00;3.20;;;11.60;99.90;;;;;;5095907;28;20197;-78
2022/11/05 12:13:02;;;;;;;9.07;3.37;;;11.60;99.90;;;;;;5084066;28;20151;-79
2022/11/05 12:15:37;;;;;;;4.80;3.20;;;11.60;99.90;;;;;;5074709;28;20214;-80
2022/11/05 12:18:06;;;;;;;9.27;3.30;;;11.60;99.90;;;;;;5076293;28;20660;-80
2022/11/05 12:20:53;;;;;;;8.93;3.10;;;11.60;99.90;;;;;;5076590;28;20167;-80
2022/11/05 12:23:38;;;;;;;6.53;3.27;;;11.60;1.00;;;;;;5074354;28;20163;-79
2022/11/05 12:26:15;;;;;;;4.67;2.93;;;11.70;80.80;;;;;;5074506;28;20162;-78
2022/11/05 12:29:07;;;;;;;8.13;2.77;;;11.70;99.90;;;;;;5074140;28;20293;-79
2022/11/05 12:31:43;;;;;;;5.60;2.97;;;11.70;99.90;;;;;;5075651;28;20161;-80
2022/11/05 12:34:26;;;;;;;4.63;3.00;;;11.70;99.90;;;;;;5074341;28;20158;-79
2022/11/05 12:37:11;;;;;;;6.37;3.00;;;11.70;1.00;;;;;;5076261;28;20205;-79
2022/11/05 12:40:01;;;;;;;6.87;2.80;;;11.70;1.00;;;;;;5076850;28;20191;-79
2022/11/05 12:42:40;;;;;;;9.10;3.23;;;11.70;99.90;;;;;;5077530;28;20635;-80
2022/11/05 12:45:28;;;;;;;7.53;3.10;;;11.80;1.00;;;;;;5074609;28;20204;-79
2022/11/05 12:48:37;;;;;;;4.27;2.57;;;11.80;1.00;;;;;;5076037;28;20193;-79
2022/11/05 12:51:30;;;;;;;7.43;2.93;;;11.70;1.00;;;;;;5076242;28;20175;-79
2022/11/05 12:54:13;;;;;;;8.60;2.70;;;11.70;1.00;;;;;;5076402;28;20632;-79
2022/11/05 12:56:46;;;;;;;3.67;2.60;;;11.80;1.00;;;;;;5074706;28;20163;-80
2022/11/05 12:59:30;;;;;;;6.13;3.00;;;11.70;57.90;;;;;;5075574;28;20191;-79
2022/11/05 13:02:03;;;;;;;4.93;2.67;;;11.80;83.30;;;;;;5074396;28;20167;-79
2022/11/05 13:04:42;;;;;;;4.73;2.73;;;11.80;1.00;;;;;;5074168;28;20171;-80
2022/11/05 13:07:12;;;;;;;5.07;2.20;;;11.80;99.90;;;;;;5075558;28;20633;-79
2022/11/05 13:09:49;;;;;;;3.63;2.30;;;11.80;99.90;;;;;;5078931;28;20216;-79
2022/11/05 13:12:18;;;;;;;4.43;2.33;;;11.70;1.00;;;;;;5077672;28;20171;-79
2022/11/05 13:15:14;;;;;;;5.53;2.63;;;11.70;1.00;;;;;;5076797;28;20646;-79
2022/11/05 13:17:47;;;;;;;4.17;2.23;;;11.70;1.00;;;;;;5075931;28;20165;-79
2022/11/05 13:20:18;;;;;;;7.90;2.97;;;11.70;1.00;;;;;;5074060;28;20198;-80
2022/11/05 13:23:24;;;;;;;6.50;2.77;;;11.60;1.00;;;;;;5074409;28;20164;-79
2022/11/05 13:25:57;;;;;;;4.07;2.00;;;11.70;99.90;;;;;;5075462;28;20163;-79
2022/11/05 13:28:49;;;;;;;5.80;2.00;;;11.70;22.90;;;;;;5075463;28;20203;-79
2022/11/05 13:31:20;;;;;;;4.53;1.97;;;11.70;1.00;;;;;;5076123;28;20186;-79
2022/11/05 13:33:49;;;;;;;5.67;2.43;;;11.70;36.70;;;;;;5075377;28;20178;-79
2022/11/05 13:39:34;;;;;;;6.17;2.00;;;11.80;1.00;;;;;;5053542;28;20661;-79
2022/11/05 13:42:06;;;;;;;4.60;2.10;;;11.70;1.00;;;;;;5073448;28;20675;-79
2022/11/05 13:44:58;;;;;;;2.97;1.73;;;11.70;1.00;;;;;;5079364;28;20194;-79
2022/11/05 13:47:36;;;;;;;4.57;2.00;;;11.70;1.00;;;;;;5079128;28;20182;-79
2022/11/05 13:50:16;;;;;;;9.23;2.80;;;11.70;22.80;;;;;;5079783;28;20187;-79
2022/11/05 13:53:12;;;;;;;4.57;2.57;;;11.70;99.90;;;;;;5079195;28;20640;-79
2022/11/05 13:55:49;;;;;;;4.63;2.20;;;11.70;99.90;;;;;;5079266;28;20158;-80
2022/11/05 13:58:33;;;;;;;7.00;2.77;;;11.70;99.90;;;;;;5079122;28;20197;-79